Time;durP1;ratioP1;P1;durP2;ratioP2;P2;SDS_P1;SDS_P2;PMS_P1;PMS_P2;Temp;Humidity;BMP_temperature;BMP_pressure;BME280_temperature;BME280_humidity;BME280_pressure;Samples;Min_cycle;Max_cycle;Signal;HPM_P1;HPM_P2
2023/05/19 00:01:12;;;;;;;;;19.33;14.00;;;;;15.74;44.47;101942.28;4954678;28;46464;-66
2023/05/19 00:03:47;;;;;;;;;13.67;11.67;;;;;15.76;44.59;101949.31;4953540;28;45393;-63
2023/05/19 00:06:13;;;;;;;;;17.00;15.33;;;;;15.78;44.44;101951.94;4957676;28;45487;-67
2023/05/19 00:08:39;;;;;;;;;14.67;11.67;;;;;15.74;44.70;101950.19;4960765;28;45246;-65
2023/05/19 00:11:05;;;;;;;;;13.33;11.33;;;;;15.78;45.07;101955.47;4959771;28;45418;-66
2023/05/19 00:13:31;;;;;;;;;15.33;11.33;;;;;15.76;44.95;101951.06;4955789;28;45836;-69
2023/05/19 00:15:57;;;;;;;;;15.33;12.00;;;;;15.76;45.05;101961.66;4956163;28;45728;-67
2023/05/19 00:18:23;;;;;;;;;12.00;12.00;;;;;15.72;45.64;101967.78;4955883;28;45462;-65
2023/05/19 00:20:48;;;;;;;;;17.33;13.33;;;;;15.59;45.42;101951.91;4955950;28;46240;-68
2023/05/19 00:23:14;;;;;;;;;11.33;11.00;;;;;15.71;45.65;101971.31;4958375;28;45393;-65
2023/05/19 00:25:39;;;;;;;;;16.00;14.00;;;;;15.65;45.63;101962.47;4953820;28;45337;-66
2023/05/19 00:28:05;;;;;;;;;12.00;11.67;;;;;15.61;46.25;101958.09;4955729;28;45305;-70
2023/05/19 00:30:31;;;;;;;;;10.67;10.00;;;;;15.63;46.48;101958.94;4956794;28;46635;-67
2023/05/19 00:32:56;;;;;;;;;16.00;12.00;;;;;15.62;46.37;101965.13;4958046;28;45499;-67
2023/05/19 00:35:22;;;;;;;;;15.00;10.00;;;;;15.53;46.59;101946.63;4956654;28;45458;-65
2023/05/19 00:37:48;;;;;;;;;14.67;11.00;;;;;15.57;46.73;101963.38;4956562;28;45443;-69
2023/05/19 00:40:14;;;;;;;;;9.33;9.33;;;;;15.51;46.83;101955.41;4955878;28;45440;-66
2023/05/19 00:42:40;;;;;;;;;18.00;11.67;;;;;15.47;47.11;101954.53;4954940;28;45882;-65
2023/05/19 00:45:06;;;;;;;;;13.00;12.00;;;;;15.49;46.85;101955.41;4956113;28;45481;-65
2023/05/19 00:47:32;;;;;;;;;15.67;12.33;;;;;15.42;47.35;101956.28;4956225;28;45514;-66
2023/05/19 00:49:58;;;;;;;;;16.00;11.33;;;;;15.44;47.67;101960.69;4958374;28;46260;-65
2023/05/19 00:52:24;;;;;;;;;15.67;14.33;;;;;15.44;47.31;101951.88;4960322;28;45539;-68
2023/05/19 00:54:51;;;;;;;;;17.33;14.00;;;;;15.37;47.72;101939.56;4958998;28;45314;-63
2023/05/19 00:57:17;;;;;;;;;13.67;12.33;;;;;15.20;47.52;101914.00;4957594;28;45476;-67
2023/05/19 00:59:43;;;;;;;;;11.00;10.33;;;;;15.41;47.78;101951.91;4955417;28;45601;-60
2023/05/19 01:02:08;;;;;;;;;16.67;11.33;;;;;15.35;48.07;101942.22;4955096;28;45381;-64
2023/05/19 01:04:36;;;;;;;;;15.67;15.00;;;;;15.41;48.01;101941.34;4954598;28;45510;-63
2023/05/19 01:07:02;;;;;;;;;11.00;11.00;;;;;15.34;47.93;101940.44;4955582;28;45596;-69
2023/05/19 01:09:29;;;;;;;;;16.33;12.33;;;;;15.33;48.29;101943.06;4955867;28;46359;-69
2023/05/19 01:11:55;;;;;;;;;13.33;12.33;;;;;15.32;48.20;101942.19;4954438;28;45512;-68
2023/05/19 01:14:21;;;;;;;;;12.00;11.00;;;;;15.18;48.72;101915.75;4955309;28;45460;-65
2023/05/19 01:17:13;;;;;;;;;15.00;13.67;;;;;15.26;48.47;101934.28;4954594;28;45672;-69
2023/05/19 01:20:12;;;;;;;;;16.33;14.67;;;;;15.24;48.69;101939.53;4955126;28;46760;-63
2023/05/19 01:23:15;;;;;;;;;13.67;13.67;;;;;15.22;48.98;101936.00;4955093;28;45401;-62
2023/05/19 01:26:18;;;;;;;;;17.33;16.33;;;;;14.95;48.88;101892.00;4955392;28;46189;-61
2023/05/19 01:29:08;;;;;;;;;14.33;11.33;;;;;15.14;49.33;101926.31;4955733;28;45697;-65
2023/05/19 01:31:37;;;;;;;;;19.33;12.00;;;;;15.11;49.21;101937.75;4953517;28;47734;-65
2023/05/19 01:34:06;;;;;;;;;17.67;12.67;;;;;15.07;49.62;101925.44;4953500;28;45944;-63
2023/05/19 01:36:32;;;;;;;;;20.33;15.00;;;;;15.11;49.61;101928.94;4955040;28;45406;-67
2023/05/19 01:39:00;;;;;;;;;15.33;14.33;;;;;15.06;49.66;101929.81;4958705;28;45476;-65
2023/05/19 01:41:27;;;;;;;;;16.67;14.00;;;;;15.00;49.69;101926.31;4953829;28;46979;-60
2023/05/19 01:43:53;;;;;;;;;15.67;13.67;;;;;14.99;49.88;101930.69;4954005;28;45416;-63
2023/05/19 01:46:20;;;;;;;;;18.67;12.67;;;;;14.93;49.86;101920.13;4954801;28;45516;-66
2023/05/19 01:48:46;;;;;;;;;14.67;12.67;;;;;14.88;50.39;101918.31;4958309;28;45719;-66
2023/05/19 01:51:12;;;;;;;;;15.33;9.33;;;;;14.94;50.09;101934.19;4956547;28;46203;-63
2023/05/19 01:53:37;;;;;;;;;21.75;19.25;;;;;14.90;50.08;101927.13;4935760;28;45466;-63
2023/05/19 01:56:04;;;;;;;;;14.25;13.25;;;;;14.81;50.09;101912.19;4934775;28;45845;-66
2023/05/19 01:58:42;;;;;;;;;15.00;11.67;;;;;14.81;50.16;101914.81;4934469;28;45479;-65
2023/05/19 02:01:08;;;;;;;;;13.00;12.67;;;;;14.87;50.53;101932.41;4935716;28;46440;-60
2023/05/19 02:04:17;;;;;;;;;18.50;15.50;;;;;14.87;50.47;101922.72;4938630;28;45655;-66
2023/05/19 02:06:52;;;;;;;;;20.00;18.33;;;;;14.76;50.54;101913.88;4939719;28;45568;-68
2023/05/19 02:09:50;;;;;;;;;14.75;14.75;;;;;14.79;51.12;101932.38;4939928;28;45450;-69
2023/05/19 02:12:24;;;;;;;;;25.00;16.00;;;;;14.77;50.83;101923.59;4933033;28;45422;-68
2023/05/19 02:15:25;;;;;;;;;18.00;15.50;;;;;14.72;50.84;101925.31;4934203;28;45493;-63
2023/05/19 02:17:53;;;;;;;;;24.50;16.75;;;;;14.65;51.40;101921.78;4935512;28;45432;-66
2023/05/19 02:20:20;;;;;;;;;24.25;17.00;;;;;14.62;50.99;101925.28;4935587;28;45570;-64
2023/05/19 02:22:46;;;;;;;;;19.50;14.25;;;;;14.61;51.88;101926.16;4934963;28;45490;-68
2023/05/19 02:25:12;;;;;;;;;13.75;13.00;;;;;14.56;51.12;101921.75;4934922;28;45396;-65
2023/05/19 02:27:38;;;;;;;;;16.50;13.00;;;;;14.59;50.99;101927.00;4936750;28;45622;-63
2023/05/19 02:30:05;;;;;;;;;16.67;12.67;;;;;14.58;51.39;101922.63;4939778;28;45263;-62
2023/05/19 02:32:31;;;;;;;;;18.50;17.50;;;;;14.56;51.54;101921.75;4939147;28;46647;-62
2023/05/19 02:34:56;;;;;;;;;20.75;13.75;;;;;14.55;51.61;101922.63;4937979;28;45348;-62
2023/05/19 02:37:23;;;;;;;;;14.50;14.50;;;;;14.49;51.31;101912.88;4939404;28;45459;-67
2023/05/19 02:39:48;;;;;;;;;16.75;13.00;;;;;14.51;51.23;101915.53;4938693;28;45372;-66
2023/05/19 02:42:18;;;;;;;;;22.25;16.00;;;;;14.49;51.94;101914.63;4933349;28;46430;-68
2023/05/19 02:44:44;;;;;;;;;19.00;17.67;;;;;14.47;51.54;101922.53;4935037;28;45796;-68
2023/05/19 02:47:09;;;;;;;;;18.00;13.00;;;;;14.38;51.69;101906.69;4935280;28;45373;-68
2023/05/19 02:49:35;;;;;;;;;15.25;14.00;;;;;14.46;51.60;101910.25;4935303;28;45450;-60
2023/05/19 02:52:04;;;;;;;;;20.00;14.67;;;;;14.48;51.41;101926.06;4943562;28;46403;-63
2023/05/19 02:54:30;;;;;;;;;18.75;15.75;;;;;14.40;51.78;101902.28;4954483;28;45500;-67
2023/05/19 02:56:56;;;;;;;;;16.75;13.00;;;;;14.43;51.60;101921.66;4956136;28;45346;-64
2023/05/19 02:59:23;;;;;;;;;22.25;16.00;;;;;14.41;51.96;101914.63;4956500;28;45322;-67
2023/05/19 03:01:52;;;;;;;;;18.75;18.75;;;;;14.39;51.71;101917.22;4957235;28;45471;-67
2023/05/19 03:04:18;;;;;;;;;25.00;16.50;;;;;14.37;51.83;101911.06;4957264;28;45405;-68
2023/05/19 03:06:45;;;;;;;;;17.33;15.33;;;;;14.36;51.95;101908.44;4957308;28;45574;-65
2023/05/19 03:09:12;;;;;;;;;17.25;15.50;;;;;14.33;52.55;101913.69;4957262;28;45491;-66
2023/05/19 03:11:38;;;;;;;;;24.25;17.50;;;;;14.31;52.00;101910.19;4959333;28;46102;-62
2023/05/19 03:14:04;;;;;;;;;22.75;19.25;;;;;14.31;52.07;101910.19;4957328;28;45311;-64
2023/05/19 03:16:30;;;;;;;;;21.00;15.50;;;;;14.26;51.86;101898.72;4957929;28;45989;-70
2023/05/19 03:18:55;;;;;;;;;18.75;15.25;;;;;14.26;52.06;101910.16;4957960;28;45432;-66
2023/05/19 03:21:21;;;;;;;;;15.00;12.00;;;;;14.25;52.05;101915.41;4961552;28;45525;-63
2023/05/19 03:23:47;;;;;;;;;21.25;16.00;;;;;14.24;52.12;101916.25;4960069;28;45433;-71
2023/05/19 03:26:12;;;;;;;;;22.25;16.75;;;;;14.27;51.94;101925.06;4959877;28;45551;-65
2023/05/19 03:28:38;;;;;;;;;21.50;16.25;;;;;14.14;52.32;101903.06;4957850;28;45786;-64
2023/05/19 03:31:03;;;;;;;;;21.75;17.00;;;;;14.26;52.15;101917.16;4957201;28;46453;-66
2023/05/19 03:33:29;;;;;;;;;17.50;15.00;;;;;14.19;52.06;101911.00;4957180;28;45410;-68
2023/05/19 03:35:57;;;;;;;;;15.25;13.00;;;;;14.19;52.10;101916.25;4958176;28;45607;-68
2023/05/19 03:38:23;;;;;;;;;18.50;16.25;;;;;14.16;51.89;101916.22;4961235;28;45544;-68
2023/05/19 03:40:49;;;;;;;;;19.25;18.50;;;;;14.12;52.46;101914.47;4958605;28;45900;-69
2023/05/19 03:43:15;;;;;;;;;6.50;5.75;;;;;14.16;52.62;101917.09;4956876;28;45421;-67
2023/05/19 03:45:41;;;;;;;;;23.50;15.50;;;;;14.14;52.19;101917.97;4957143;28;45331;-68
2023/05/19 03:48:06;;;;;;;;;19.00;15.00;;;;;14.08;52.33;101907.41;4957322;28;45477;-65
2023/05/19 03:50:32;;;;;;;;;21.00;16.25;;;;;14.09;52.52;101920.56;4958759;28;47149;-67
2023/05/19 03:52:58;;;;;;;;;17.00;15.50;;;;;14.02;52.84;101910.84;4938547;28;45471;-68
2023/05/19 03:55:24;;;;;;;;;20.00;16.00;;;;;13.93;52.34;101898.53;4936038;28;45305;-67
2023/05/19 03:57:51;;;;;;;;;19.00;18.00;;;;;14.07;52.58;101924.97;4937718;28;45361;-63
2023/05/19 04:00:17;;;;;;;;;20.50;15.25;;;;;14.08;52.69;101920.56;4937197;28;46321;-68
2023/05/19 04:02:43;;;;;;;;;22.50;17.75;;;;;14.04;52.41;101916.16;4940960;28;45414;-66
2023/05/19 04:05:09;;;;;;;;;24.50;18.25;;;;;13.95;52.90;101906.41;4941840;28;45431;-65
2023/05/19 04:07:35;;;;;;;;;16.50;15.50;;;;;13.97;52.48;101905.56;4941194;28;45467;-66
2023/05/19 04:10:05;;;;;;;;;19.00;15.00;;;;;13.90;52.71;101900.25;4941427;28;45464;-67
2023/05/19 04:12:31;;;;;;;;;20.50;18.25;;;;;13.99;52.57;101916.13;4941269;28;45365;-66
2023/05/19 04:14:57;;;;;;;;;21.75;16.50;;;;;13.94;53.00;101917.84;4940206;28;45677;-66
2023/05/19 04:17:25;;;;;;;;;20.75;15.25;;;;;13.97;52.62;101928.38;4941882;28;45380;-64
2023/05/19 04:19:51;;;;;;;;;20.50;20.00;;;;;13.96;52.59;101916.97;4938636;28;45637;-65
2023/05/19 04:22:17;;;;;;;;;21.75;15.00;;;;;13.98;52.67;101927.53;4936664;28;45283;-62
2023/05/19 04:24:42;;;;;;;;;20.25;19.25;;;;;13.99;52.33;101929.28;4936923;28;45411;-64
2023/05/19 04:27:10;;;;;;;;;20.75;17.50;;;;;13.97;52.77;101918.72;4936876;28;45452;-64
2023/05/19 04:29:37;;;;;;;;;19.25;16.50;;;;;14.00;52.37;101921.41;4936593;28;46190;-63
2023/05/19 04:32:06;;;;;;;;;21.25;15.75;;;;;14.05;52.39;101933.69;4940395;28;45473;-66
2023/05/19 04:34:33;;;;;;;;;21.25;16.75;;;;;14.06;52.33;101932.84;4937133;28;45622;-67
2023/05/19 04:37:00;;;;;;;;;18.50;14.75;;;;;14.01;52.46;101909.09;4937933;28;45359;-67
2023/05/19 04:39:25;;;;;;;;;20.00;17.75;;;;;14.09;52.33;101917.94;4937174;28;46409;-66
2023/05/19 04:41:52;;;;;;;;;24.00;20.00;;;;;14.10;52.54;101929.38;4936760;28;45469;-63
2023/05/19 04:44:18;;;;;;;;;18.25;17.25;;;;;14.07;51.92;101914.44;4935200;28;45424;-67
2023/05/19 04:46:44;;;;;;;;;23.00;18.00;;;;;14.10;51.93;101914.44;4940111;28;45407;-62
2023/05/19 04:49:13;;;;;;;;;20.50;14.50;;;;;14.20;51.81;101923.28;4936549;28;46830;-61
2023/05/19 04:51:44;;;;;;;;;20.00;16.75;;;;;14.20;51.71;101925.91;4942604;28;45456;-65
2023/05/19 04:54:10;;;;;;;;;20.75;16.50;;;;;14.26;52.16;101935.59;4955677;28;45305;-62
2023/05/19 04:56:36;;;;;;;;;20.75;16.25;;;;;14.27;51.54;101932.97;4959183;28;45829;-62
2023/05/19 04:59:01;;;;;;;;;22.00;16.50;;;;;14.32;51.61;101940.91;4959863;28;45432;-68
2023/05/19 05:01:27;;;;;;;;;20.25;16.00;;;;;14.34;51.87;101933.91;4959956;28;45757;-61
2023/05/19 05:03:54;;;;;;;;;19.25;15.25;;;;;14.38;51.75;101933.06;4959879;28;45516;-69
2023/05/19 05:06:21;;;;;;;;;22.00;17.25;;;;;14.42;51.28;101943.59;4960365;28;45392;-63
2023/05/19 05:08:47;;;;;;;;;21.50;18.25;;;;;14.37;51.46;101933.91;4958397;28;45540;-65
2023/05/19 05:11:13;;;;;;;;;26.25;18.75;;;;;14.50;51.44;101942.75;4958627;28;45377;-63
2023/05/19 05:13:39;;;;;;;;;24.00;19.25;;;;;14.48;51.38;101948.03;4959937;28;45277;-62
2023/05/19 05:16:07;;;;;;;;;27.25;21.50;;;;;14.52;51.23;101943.66;4958714;28;45506;-64
2023/05/19 05:18:33;;;;;;;;;19.75;18.00;;;;;14.55;51.15;101951.63;4955120;28;46111;-62
2023/05/19 05:20:59;;;;;;;;;18.50;16.00;;;;;14.58;50.64;101954.28;4954928;28;45531;-64
2023/05/19 05:23:25;;;;;;;;;21.00;17.25;;;;;14.61;50.42;101949.00;4955974;28;45719;-62
2023/05/19 05:25:51;;;;;;;;;29.75;23.00;;;;;14.70;50.08;101962.22;4955637;28;45692;-62
2023/05/19 05:28:17;;;;;;;;;19.50;16.00;;;;;14.73;50.60;101950.81;4959426;28;45422;-68
2023/05/19 05:30:43;;;;;;;;;20.50;17.50;;;;;14.80;49.90;101948.19;4958197;28;45341;-62
2023/05/19 05:33:10;;;;;;;;;22.00;18.75;;;;;14.86;50.24;101957.91;4959720;28;45393;-60
2023/05/19 05:35:35;;;;;;;;;23.50;20.25;;;;;14.92;49.55;101963.19;4959899;28;45345;-61
2023/05/19 05:38:02;;;;;;;;;20.00;17.50;;;;;14.96;49.30;101964.09;4959649;28;46237;-65
2023/05/19 05:40:27;;;;;;;;;26.00;19.25;;;;;14.94;49.11;101950.03;4955520;28;45468;-63
2023/05/19 05:42:57;;;;;;;;;23.25;19.25;;;;;15.09;49.44;101968.56;4953964;28;45610;-64
2023/05/19 05:45:23;;;;;;;;;24.50;19.75;;;;;15.16;49.25;101959.78;4954819;28;45553;-61
2023/05/19 05:47:50;;;;;;;;;18.50;16.75;;;;;15.02;48.94;101933.34;4954462;28;46152;-67
2023/05/19 05:50:16;;;;;;;;;18.25;16.75;;;;;15.31;48.61;101950.13;4954978;28;45377;-68
2023/05/19 05:52:46;;;;;;;;;20.00;19.25;;;;;15.32;48.58;101950.09;4940430;28;45466;-66
2023/05/19 05:55:12;;;;;;;;;27.50;23.00;;;;;15.44;48.44;101962.44;4935946;28;45491;-66
2023/05/19 05:57:40;;;;;;;;;17.75;16.00;;;;;15.50;47.99;101957.19;4935728;28;45305;-65
2023/05/19 06:00:14;;;;;;;;;28.25;23.75;;;;;15.75;47.66;101963.38;4935327;28;45559;-67
2023/05/19 06:02:42;;;;;;;;;29.75;18.50;;;;;15.90;47.25;101957.25;4936241;28;45379;-64
2023/05/19 06:05:11;;;;;;;;;21.33;19.00;;;;;15.95;47.06;101975.72;4935617;28;45302;-61
2023/05/19 06:07:37;;;;;;;;;30.00;19.25;;;;;15.93;46.93;101965.16;4935132;28;45545;-62
2023/05/19 06:10:03;;;;;;;;;19.50;15.00;;;;;15.85;47.07;101954.59;4935425;28;45448;-67
2023/05/19 06:12:29;;;;;;;;;21.00;18.33;;;;;15.98;47.08;101971.31;4935676;28;45480;-68
2023/05/19 06:14:54;;;;;;;;;16.50;16.00;;;;;15.94;46.94;101951.03;4937576;28;45408;-68
2023/05/19 06:17:20;;;;;;;;;15.33;14.67;;;;;16.01;46.45;101952.81;4939426;28;45824;-68
2023/05/19 06:19:46;;;;;;;;;20.67;15.00;;;;;16.22;46.34;101969.53;4936249;28;45403;-67
2023/05/19 06:22:11;;;;;;;;;19.33;17.00;;;;;16.18;46.19;101951.91;4933803;28;45600;-66
2023/05/19 06:24:37;;;;;;;;;27.25;22.75;;;;;16.28;45.96;101969.53;4937414;28;45645;-61
2023/05/19 06:27:02;;;;;;;;;24.50;16.75;;;;;16.28;45.68;101970.41;4934921;28;45520;-66
2023/05/19 06:29:28;;;;;;;;;20.75;18.50;;;;;16.31;45.66;101964.22;4934003;28;45513;-67
2023/05/19 06:31:53;;;;;;;;;25.75;20.50;;;;;16.34;45.92;101961.56;4933100;28;45397;-63
2023/05/19 06:34:19;;;;;;;;;23.50;21.25;;;;;16.41;45.52;101973.00;4938445;28;45537;-65
2023/05/19 06:36:45;;;;;;;;;23.50;21.50;;;;;16.49;45.57;101968.56;4938958;28;45578;-67
2023/05/19 06:39:11;;;;;;;;;27.25;22.00;;;;;16.59;45.30;101974.72;4933631;28;45581;-66
2023/05/19 06:41:36;;;;;;;;;21.00;19.33;;;;;16.60;45.14;101966.78;4938412;28;45348;-67
2023/05/19 06:44:03;;;;;;;;;28.00;17.67;;;;;16.63;45.00;101950.00;4935111;28;46161;-69
2023/05/19 06:46:28;;;;;;;;;24.33;19.00;;;;;16.71;44.88;101964.97;4935826;28;46745;-68
2023/05/19 06:48:54;;;;;;;;;36.75;28.00;;;;;16.76;44.84;101959.66;4935470;28;45400;-66
2023/05/19 06:51:21;;;;;;;;;28.25;25.00;;;;;16.86;44.69;101961.41;4938385;28;45361;-64
2023/05/19 06:53:48;;;;;;;;;23.00;18.67;;;;;16.91;44.58;101962.25;4954265;28;45682;-68
2023/05/19 06:56:15;;;;;;;;;26.67;21.00;;;;;16.97;44.55;101944.63;4954787;28;46516;-69
2023/05/19 06:58:40;;;;;;;;;17.67;16.00;;;;;17.08;44.42;101954.22;4958110;28;45429;-69
2023/05/19 07:01:06;;;;;;;;;18.67;16.67;;;;;17.13;44.23;101940.97;4958043;28;45439;-68
2023/05/19 07:03:31;;;;;;;;;21.33;18.33;;;;;17.20;44.09;101949.75;4955157;28;45445;-66
2023/05/19 07:05:57;;;;;;;;;21.67;15.33;;;;;17.32;44.09;101954.97;4953858;28;46093;-69
2023/05/19 07:08:22;;;;;;;;;16.67;15.33;;;;;17.36;43.83;101946.13;4952667;28;45553;-69
2023/05/19 07:10:48;;;;;;;;;21.00;20.00;;;;;17.44;43.59;101948.72;4954253;28;45794;-68
2023/05/19 07:13:13;;;;;;;;;22.67;18.67;;;;;17.50;43.66;101946.03;4954344;28;45448;-68
2023/05/19 07:15:39;;;;;;;;;23.33;19.00;;;;;17.55;43.21;101947.75;4951538;28;45318;-70
2023/05/19 07:18:05;;;;;;;;;21.33;18.67;;;;;17.57;43.22;101943.31;4957213;28;45455;-70
2023/05/19 07:20:31;;;;;;;;;18.67;17.33;;;;;17.62;43.04;101945.94;4952703;28;45491;-69
2023/05/19 07:22:56;;;;;;;;;18.33;16.00;;;;;17.69;43.08;101950.28;4954917;28;45330;-70
2023/05/19 07:25:22;;;;;;;;;17.33;16.00;;;;;17.74;42.80;101959.09;4956249;28;45370;-69
2023/05/19 07:27:48;;;;;;;;;21.33;19.33;;;;;17.61;43.20;101936.25;4958012;28;45588;-69
2023/05/19 07:30:13;;;;;;;;;24.67;21.33;;;;;17.73;42.62;101941.44;4958318;28;45392;-66
2023/05/19 07:32:39;;;;;;;;;20.33;17.33;;;;;17.83;42.53;101950.22;4954831;28;45749;-64
2023/05/19 07:35:05;;;;;;;;;21.33;17.33;;;;;17.83;42.64;101941.41;4952373;28;47553;-63
2023/05/19 07:37:30;;;;;;;;;18.67;16.33;;;;;17.83;42.45;101938.75;4956318;28;45495;-68
2023/05/19 07:39:56;;;;;;;;;23.33;17.33;;;;;17.97;42.49;101950.97;4956126;28;45539;-63
2023/05/19 07:42:22;;;;;;;;;15.67;15.00;;;;;17.91;42.41;101928.94;4953798;28;45537;-63
2023/05/19 07:44:47;;;;;;;;;25.00;20.00;;;;;18.05;41.99;101950.03;4957080;28;46097;-65
2023/05/19 07:47:13;;;;;;;;;20.33;18.67;;;;;18.04;42.11;101935.03;4956497;28;45528;-63
2023/05/19 07:49:38;;;;;;;;;18.67;16.67;;;;;18.14;41.96;101949.94;4956551;28;45709;-62
2023/05/19 07:52:04;;;;;;;;;20.33;18.00;;;;;17.95;41.94;101906.81;4945889;28;45342;-66
2023/05/19 07:54:29;;;;;;;;;20.33;18.67;;;;;18.18;42.01;101938.41;4947635;28;45309;-62
2023/05/19 07:56:55;;;;;;;;;22.00;17.00;;;;;18.13;41.84;101921.66;4956151;28;46148;-68
2023/05/19 07:59:21;;;;;;;;;18.33;17.00;;;;;18.24;41.76;101925.06;4959457;28;45791;-61
2023/05/19 08:01:46;;;;;;;;;20.33;18.67;;;;;18.30;41.85;101937.41;4961518;28;45352;-68
2023/05/19 08:04:12;;;;;;;;;15.33;13.33;;;;;18.26;41.90;101915.31;4955342;28;45603;-63
2023/05/19 08:06:38;;;;;;;;;17.67;14.67;;;;;18.44;41.91;101932.81;4945633;28;45423;-62
2023/05/19 08:09:04;;;;;;;;;20.33;14.67;;;;;18.50;41.38;101924.75;4941921;28;45349;-68
2023/05/19 08:11:32;;;;;;;;;16.67;16.00;;;;;18.55;41.51;101933.53;4957956;28;45715;-64
2023/05/19 08:13:58;;;;;;;;;55.00;43.75;;;;;18.60;41.93;101921.13;4960214;28;46059;-67
2023/05/19 08:16:24;;;;;;;;;51.25;40.00;;;;;18.76;41.95;101920.91;4960660;28;45417;-67
2023/05/19 08:18:49;;;;;;;;;34.00;28.67;;;;;18.60;42.31;101920.22;4960343;28;45365;-67
2023/05/19 08:21:15;;;;;;;;;46.00;37.00;;;;;18.65;42.08;101921.06;4956589;28;45465;-67
2023/05/19 08:23:40;;;;;;;;;38.75;34.50;;;;;18.74;42.40;101914.75;4955468;28;45669;-66
2023/05/19 08:26:06;;;;;;;;;33.00;31.00;;;;;18.84;42.35;101911.13;4955790;28;45924;-64
2023/05/19 08:28:32;;;;;;;;;41.00;33.75;;;;;18.93;41.98;101912.75;4956318;28;45495;-63
2023/05/19 08:30:57;;;;;;;;;41.00;33.50;;;;;18.96;41.72;101897.66;4956463;28;45460;-71
2023/05/19 08:33:23;;;;;;;;;30.33;24.67;;;;;19.07;41.17;101903.69;4956078;28;45528;-67
2023/05/19 08:35:48;;;;;;;;;42.25;33.00;;;;;19.15;41.43;101908.91;4956512;28;45553;-69
2023/05/19 08:38:14;;;;;;;;;25.67;24.67;;;;;19.23;40.72;101912.31;4957027;28;45589;-65
2023/05/19 08:40:46;;;;;;;;;30.00;25.00;;;;;19.32;41.55;101911.28;4956160;28;45954;-66
2023/05/19 08:43:12;;;;;;;;;39.00;31.25;;;;;19.30;41.19;101897.16;4958360;28;45380;-67
2023/05/19 08:45:43;;;;;;;;;33.33;25.33;;;;;19.43;41.50;101911.09;4960085;28;45446;-68
2023/05/19 08:48:08;;;;;;;;;37.75;32.25;;;;;19.46;42.82;101893.34;4956313;28;45548;-66
2023/05/19 08:50:42;;;;;;;;;39.50;32.50;;;;;19.56;42.20;101890.53;4949136;28;45458;-61
2023/05/19 08:53:35;;;;;;;;;36.33;28.00;;;;;19.62;42.60;101893.97;4957772;28;45531;-64
2023/05/19 08:56:10;;;;;;;;;27.33;22.33;;;;;19.74;42.18;101892.03;4960853;28;45911;-66
2023/05/19 08:58:39;;;;;;;;;30.33;26.67;;;;;19.75;42.31;101886.69;4959176;28;45944;-66
2023/05/19 09:01:09;;;;;;;;;25.67;24.00;;;;;19.80;40.88;101883.94;4972422;28;45258;-66
2023/05/19 09:03:38;;;;;;;;;27.00;23.00;;;;;19.80;41.09;101879.50;4975527;28;45555;-62
2023/05/19 09:06:07;;;;;;;;;25.00;22.00;;;;;19.81;40.46;101875.97;4956253;28;45590;-64
2023/05/19 09:08:33;;;;;;;;;23.00;21.67;;;;;19.86;40.87;101884.72;4958364;28;45714;-67
2023/05/19 09:10:59;;;;;;;;;22.33;16.00;;;;;19.87;40.06;101881.16;4958759;28;45617;-67
2023/05/19 09:13:25;;;;;;;;;18.33;12.67;;;;;19.85;39.62;101880.28;4958246;28;46408;-67
2023/05/19 09:15:52;;;;;;;;;15.33;15.00;;;;;19.84;39.39;101886.53;4955303;28;45700;-66
2023/05/19 09:18:18;;;;;;;;;20.67;15.33;;;;;19.86;39.61;101875.84;4955238;28;45444;-67
2023/05/19 09:20:44;;;;;;;;;20.67;17.00;;;;;19.83;39.59;101863.50;4954933;28;45492;-66
2023/05/19 09:23:15;;;;;;;;;18.00;16.67;;;;;19.90;40.64;101874.88;4955847;28;46344;-64
2023/05/19 09:25:51;;;;;;;;;19.00;16.33;;;;;19.92;40.54;101871.28;4955014;28;45787;-67
2023/05/19 09:28:23;;;;;;;;;20.00;16.67;;;;;20.03;41.38;101872.91;4955074;28;45468;-68
2023/05/19 09:31:08;;;;;;;;;18.00;13.67;;;;;20.08;40.89;101861.25;4955922;28;45361;-66
2023/05/19 09:33:36;;;;;;;;;17.00;15.33;;;;;20.15;40.47;101856.69;4954805;28;45786;-69
2023/05/19 09:36:04;;;;;;;;;17.33;15.00;;;;;20.18;39.78;101856.63;4958574;28;45540;-67
2023/05/19 09:38:30;;;;;;;;;18.67;14.33;;;;;20.20;40.92;101845.97;4955520;28;45934;-63
2023/05/19 09:40:57;;;;;;;;;18.67;13.67;;;;;20.18;39.99;101845.97;4955412;28;45699;-63
2023/05/19 09:43:23;;;;;;;;;19.00;15.00;;;;;20.21;40.30;101845.91;4955211;28;46290;-63
2023/05/19 09:46:00;;;;;;;;;15.00;13.67;;;;;20.28;40.67;101849.31;4955382;28;45430;-68
2023/05/19 09:48:26;;;;;;;;;17.33;14.33;;;;;20.36;40.79;101851.81;4958616;28;45516;-66
2023/05/19 09:50:53;;;;;;;;;17.33;15.33;;;;;20.34;39.51;101839.44;4957923;28;45510;-69
2023/05/19 09:53:20;;;;;;;;;16.00;12.00;;;;;20.39;39.45;101844.66;4935775;28;45367;-66
2023/05/19 09:55:47;;;;;;;;;16.00;14.00;;;;;20.24;37.14;101845.88;4937452;28;45374;-68
2023/05/19 09:58:17;;;;;;;;;14.67;11.67;;;;;20.09;37.67;101843.50;4937225;28;45465;-69
2023/05/19 10:00:45;;;;;;;;;13.00;11.00;;;;;20.11;38.92;101842.56;4935493;28;45386;-65
2023/05/19 10:03:12;;;;;;;;;12.67;11.67;;;;;20.25;39.18;101849.41;4937900;28;45466;-66
2023/05/19 10:05:40;;;;;;;;;14.67;11.67;;;;;20.36;38.02;101838.50;4933007;28;45858;-67
2023/05/19 10:08:09;;;;;;;;;13.67;11.67;;;;;20.31;38.21;101828.88;4933728;28;45450;-66
2023/05/19 10:10:36;;;;;;;;;16.33;13.00;;;;;20.45;37.90;101846.31;4935435;28;46219;-67
2023/05/19 10:13:03;;;;;;;;;16.67;13.33;;;;;20.47;37.57;101832.06;4937906;28;45446;-65
2023/05/19 10:15:29;;;;;;;;;14.00;11.33;;;;;20.55;37.91;101837.22;4935864;28;45499;-67
2023/05/19 10:17:55;;;;;;;;;11.67;9.67;;;;;20.56;36.98;101833.69;4935809;28;45310;-65
2023/05/19 10:20:21;;;;;;;;;15.33;10.67;;;;;20.67;37.18;101837.00;4938210;28;45301;-68
2023/05/19 10:22:47;;;;;;;;;8.33;7.67;;;;;20.74;37.80;101830.59;4933581;28;45478;-67
2023/05/19 10:25:14;;;;;;;;;15.00;13.00;;;;;20.82;37.26;101825.09;4935273;28;45370;-62
2023/05/19 10:27:59;;;;;;;;;13.67;10.67;;;;;20.93;37.60;101836.38;4936002;28;45892;-66
2023/05/19 10:30:40;;;;;;;;;20.33;12.67;;;;;20.98;35.67;101830.94;4940038;28;45385;-67
2023/05/19 10:33:09;;;;;;;;;14.33;12.33;;;;;20.71;36.23;101825.34;4939658;28;45393;-68
2023/05/19 10:36:09;;;;;;;;;12.67;11.00;;;;;20.87;36.29;101828.53;4939651;28;45460;-64
2023/05/19 10:38:55;;;;;;;;;8.33;7.67;;;;;21.08;36.10;101815.63;4935326;28;45462;-67
2023/05/19 10:41:30;;;;;;;;;23.00;15.67;;;;;21.22;35.90;101824.13;4935867;28;45507;-68
2023/05/19 10:44:04;;;;;;;;;14.00;12.33;;;;;21.44;35.59;101819.16;4939086;28;46444;-69
2023/05/19 10:46:30;;;;;;;;;14.33;12.00;;;;;21.63;35.36;101818.69;4937996;28;45536;-69
2023/05/19 10:48:56;;;;;;;;;8.33;7.67;;;;;21.70;35.16;101815.78;4935366;28;45437;-66
2023/05/19 10:51:30;;;;;;;;;13.33;11.67;;;;;21.88;34.92;101821.53;4939964;28;45500;-68
2023/05/19 10:53:57;;;;;;;;;11.67;10.67;;;;;21.95;34.64;101805.34;4953335;28;45510;-69
2023/05/19 10:56:34;;;;;;;;;11.67;10.67;;;;;22.11;34.63;101815.53;4954594;28;45411;-68
2023/05/19 10:59:01;;;;;;;;;9.67;9.67;;;;;22.02;34.69;101798.91;4952992;28;45687;-68
2023/05/19 11:01:34;;;;;;;;;10.00;9.00;;;;;21.92;35.21;101802.72;4958148;28;45682;-67
2023/05/19 11:04:14;;;;;;;;;12.00;12.00;;;;;21.90;34.80;101796.59;4958329;28;45712;-68
2023/05/19 11:06:40;;;;;;;;;12.00;11.67;;;;;22.11;34.74;101805.75;4955009;28;45492;-65
2023/05/19 11:09:12;;;;;;;;;10.00;9.33;;;;;22.35;34.63;101803.31;4954904;28;45408;-63
2023/05/19 11:11:48;;;;;;;;;11.00;11.00;;;;;22.37;34.06;101798.78;4957706;28;45404;-70
2023/05/19 11:14:18;;;;;;;;;14.67;11.00;;;;;22.49;33.80;101801.09;4952979;28;45499;-66